x

Montauk Point -23 Nm Ssw Of Montauk Point, Ny (44017) Wave Buoy

12:50am - Fri 18th Apr 2014 All times are EDT. -4 hours from GMT.

  • Sig Wave height 7.5ft
  • Swell Direction
  • Peak Period 6s
  • Average Period 6s
  • Wind
    25mph, 29mph gusts
  • Sea Temp 42°f
  • Air Temp 38°f
  • Sea Pressure 1034.2mb
  • Montauk Point -23 Nm Ssw Of Montauk Point, Ny
  • Montauk Point -23 Nm Ssw Of Montauk Point, Ny

More Historic Weather Station data

Upgrade to MSW Pro to gain access to the past 30 days of data for over 8000 Wavebouys and Weather Stations around the globe.

Join Pro

Comparision Forecast

View Surf forecast
   
Fri 04/18 12:50am 7.5ft 6s 6s 25 29 mph 1034.2mb 42f 38f
Thu 04/17 11:50pm 7.5ft 6s 6s 25 29 mph 1035.2mb 42f 39f
10:50pm 7.5ft 7s 6s 25 29 mph 1036.2mb 42f 38f
9:50pm 7ft 8s 5s 25 29 mph 1036.9mb 42f 39f
8:50pm 6.5ft 6s 5s 25 31 mph 1037.3mb 42f 39f
7:50pm 7ft 7s 6s 22 29 mph 1037.3mb 42f 39f
6:50pm 7ft 6s 5s 22 27 mph 1037.5mb 42f 39f
5:50pm 7ft 7s 5s 22 27 mph 1038.2mb 42f 39f
4:50pm 7ft 7s 5s 25 29 mph 1038.2mb 42f 39f
3:50pm 7ft 7s 6s 22 27 mph 1038.7mb 42f 39f
2:50pm 7ft 7s 6s 22 25 mph 1039.4mb 42f 39f
1:50pm 7ft 7s 6s 22 27 mph 1039.6mb 42f 38f
12:50pm 7ft 6s 6s 22 25 mph 1039.9mb 42f 38f
11:50am 7ft 7s 6s 20 29 mph 1040.1mb 42f 38f
10:50am 7.5ft 7s 5s 25 29 mph 1040mb 42f 37f
9:50am 7ft 6s 5s 25 31 mph 1039.4mb 42f 38f
7:50am 6.5ft 6s 5s 27 31 mph 1038.2mb 42f 37f
6:50am 5.5ft 6s 5s 25 29 mph 1037.4mb 42f 38f
5:50am 6ft 6s 5s 25 29 mph 1036.6mb 41f 38f
4:50am 5.5ft 10s 5s 25 29 mph 1036.4mb 41f 38f
3:50am 5.5ft 9s 5s 25 29 mph 1036.2mb 42f 38f
2:50am 5ft 10s 5s 22 25 mph 1035.9mb 42f 39f
1:50am 5ft 10s 5s 22 27 mph 1035.2mb 42f 40f
12:50am 4.5ft 10s 6s 18 20 mph 1035mb 42f 41f
Wed 04/16 11:50pm 4ft 10s 7s 13 16 mph 1034.6mb 42f 41f
10:50pm 3.5ft 11s 7s 13 16 mph 1033.7mb 42f 40f
9:50pm 3.5ft 10s 7s 11 13 mph 1033.1mb 42f 42f
8:50pm 4.5ft 10s 8s 4
mph
1032.3mb 42f 41f
7:50pm 4.5ft 10s 7s 11 13 mph 1031.1mb 42f 41f
6:50pm 4.5ft 10s 7s 11 13 mph 1030.1mb 42f 43f
5:50pm 4.5ft 10s 7s 9 11 mph 1029.5mb 42f 42f
4:50pm 4ft 10s 6s 13 18 mph 1028.9mb 42f 42f
3:50pm 4.5ft 11s 6s 13 16 mph 1028.2mb 42f 40f
2:50pm 5ft 11s 6s 13 16 mph 1028.7mb 42f 39f
1:50pm 5ft 10s 5s 16 20 mph 1028.1mb 42f 38f
12:50pm 5.5ft 11s 5s 20 25 mph 1027.1mb 41f 36f
11:50am 5.5ft 5s 5s 25 29 mph 1025.9mb 41f 36f
10:50am 6ft 5s 5s 25 29 mph 1024.7mb 41f 35f
9:50am 6ft 10s 5s 22 27 mph 1023.3mb 41f 34f
8:50am 7ft 10s 5s 25 29 mph 1021.8mb 41f 34f
7:50am 7.5ft 5s 5s 31 38 mph 1020.6mb 41f 34f
6:50am 8ft 11s 6s 29 36 mph 1018.8mb 41f 35f
5:50am 8.5ft 10s 6s 34 40 mph 1015.8mb 42f 35f
4:50am 8ft 11s 6s 29 38 mph 1013.6mb 42f 35f
3:50am 8ft 11s 6s 29 36 mph 1011.1mb 42f 34f
2:50am 8ft 11s 6s 31 38 mph 1011.8mb 42f 36f
1:50am 8ft 11s 6s 25 29 mph 1009.6mb 42f 38f
12:50am 10ft 11s 6s 29 34 mph 1008.9mb 42f 38f
Tue 04/15 11:50pm 9.5ft 11s 6s 31 40 mph 1007.5mb 42f 39f
10:50pm 9.5ft 10s 6s 31 38 mph 1005.8mb 43f 42f
9:50pm 10ft 10s 7s 22 31 mph 1004.1mb 43f 46f
8:50pm 10ft 8s 6s 27 31 mph 1001.8mb 43f 52f
7:50pm 10ft 9s 7s 18 22 mph 1002.7mb 42f 50f
6:50pm 10.5ft 9s 6s 27 34 mph 1002.8mb 43f 54f
5:50pm 10.5ft 9s 6s 27 34 mph 1003.3mb 43f 52f
4:50pm 10.5ft 9s 6s 25 38 mph 1004.6mb 43f 51f
3:50pm 9.5ft 9s 6s 27 31 mph 1003.8mb 43f 53f
2:50pm 8.5ft 9s 6s 27 34 mph 1004.3mb 43f 52f
1:50pm 8ft 8s 6s 27 34 mph 1005.3mb 43f 52f
12:50pm 8ft 9s 6s 25 29 mph 1006.6mb 43f 51f
11:50am 7ft 8s 5s 25 31 mph 1006.9mb 43f 51f
10:50am 6.5ft 8s 6s 22 27 mph 1008.2mb 43f 52f
9:50am 6.5ft 8s 5s 22 27 mph 1008.8mb 43f 51f
8:50am 6ft 8s 6s 20 25 mph 1009.5mb 43f 50f
7:50am 6.5ft 8s 6s 22 25 mph 1009.9mb 43f 51f
6:50am 6ft 7s 5s 20 25 mph 1010.7mb 43f 50f
5:50am 6ft 8s 5s 20 22 mph 1011.3mb 43f 50f
4:50am 5.5ft 7s 5s 22 25 mph 1011.7mb 43f 51f
3:50am 5.5ft 8s 5s 20 25 mph 1012mb 43f 50f
2:50am 5ft 8s 5s 18
mph
1012.1mb 43f 49f
1:50am 5.5ft 8s 5s 20 22 mph 1012.7mb 43f 50f
12:50am 5ft 8s 5s 22 25 mph 1013mb 43f 50f
Mon 04/14 11:50pm 5ft 8s 5s 20 25 mph 1013.5mb 43f 50f
10:50pm 5ft 7s 5s 22 27 mph 1014mb 43f 50f
9:50pm 5ft 7s 5s 20 22 mph 1014.7mb 43f 50f
8:50pm 4.5ft 7s 5s 18 20 mph 1015.1mb 43f 49f
7:50pm 4.5ft 7s 5s 16 20 mph 1014.9mb 42f 49f
6:50pm 4.5ft 7s 5s 16 20 mph 1015mb 42f 49f
5:50pm 5ft 7s 5s 16 18 mph 1015.2mb 42f 49f
4:50pm 4.5ft 7s 5s 16 18 mph 1015.7mb 43f 49f
3:50pm 4.5ft 6s 5s 16 18 mph 1016.4mb 43f 49f
2:50pm 4.5ft 6s 5s 20 22 mph 1016.6mb 43f 50f
1:50pm 4.5ft 6s 5s 18 20 mph 1017mb 43f 49f
12:50pm 4.5ft 6s 5s 18 22 mph 1017.5mb 43f 50f
11:50am 4.5ft 6s 5s 18 20 mph 1018.3mb 43f 49f
10:50am 4ft 6s 4s 18 20 mph 1018.6mb 43f 49f
9:50am 4.5ft 6s 5s 20 22 mph 1018.4mb 42f 50f
7:50am 4.5ft 5s 4s 18 22 mph 1018.1mb 42f 49f
6:50am 4.5ft 5s 4s 20 22 mph 1017.8mb 42f 49f